createdAt,value
2023-03-15T00:01:24.264Z,57.87
2023-03-15T00:03:51.277Z,57.86
2023-03-15T00:06:18.183Z,57.84
2023-03-15T00:08:47.998Z,57.98
2023-03-15T00:11:17.253Z,58.18
2023-03-15T00:13:45.082Z,58.19
2023-03-15T00:16:12.388Z,58.18
2023-03-15T00:18:39.196Z,58.36
2023-03-15T00:21:06.049Z,58.62
2023-03-15T00:23:32.804Z,58.58
2023-03-15T00:25:59.670Z,58.51
2023-03-15T00:28:26.545Z,58.58
2023-03-15T00:31:13.546Z,58.71
2023-03-15T00:33:41.714Z,58.59
2023-03-15T00:36:09.647Z,58.67
2023-03-15T00:38:38.166Z,58.93
2023-03-15T00:41:13.081Z,59.16
2023-03-15T00:43:41.281Z,59.10
2023-03-15T00:46:08.527Z,59.33
2023-03-15T00:48:36.416Z,59.79
2023-03-15T00:51:07.044Z,59.73
2023-03-15T00:53:35.020Z,59.94
2023-03-15T00:56:16.235Z,59.76
2023-03-15T00:58:43.264Z,59.68
2023-03-15T01:01:13.571Z,59.55
2023-03-15T01:03:41.046Z,59.56
2023-03-15T01:06:17.019Z,59.65
2023-03-15T01:08:44.811Z,59.66
2023-03-15T01:11:18.147Z,59.69
2023-03-15T01:13:44.994Z,59.19
2023-03-15T01:16:14.508Z,59.36
2023-03-15T01:18:43.433Z,59.93
2023-03-15T01:21:12.822Z,60.49
2023-03-15T01:23:40.092Z,60.71
2023-03-15T01:26:10.554Z,60.62
2023-03-15T01:28:37.432Z,60.45
2023-03-15T01:31:04.657Z,60.29
2023-03-15T01:33:31.610Z,60.46
2023-03-15T01:36:06.761Z,60.57
2023-03-15T01:38:34.774Z,61.01
2023-03-15T01:41:02.208Z,61.21
2023-03-15T01:43:31.981Z,61.23
2023-03-15T01:46:02.388Z,61.18
2023-03-15T01:48:35.351Z,60.97
2023-03-15T01:51:08.539Z,61.41
2023-03-15T01:53:36.860Z,61.30
2023-03-15T01:56:05.011Z,61.31
2023-03-15T01:58:37.204Z,61.65
2023-03-15T02:01:04.718Z,61.89
2023-03-15T02:03:39.398Z,61.86
2023-03-15T02:06:09.949Z,62.05
2023-03-15T02:09:01.397Z,61.89
2023-03-15T02:11:35.667Z,62.20
2023-03-15T02:14:05.558Z,62.12
2023-03-15T02:16:34.419Z,62.36
2023-03-15T02:19:12.133Z,62.18
2023-03-15T02:21:38.883Z,62.62
2023-03-15T02:24:08.480Z,62.38
2023-03-15T02:26:42.666Z,62.02
2023-03-15T02:29:09.686Z,62.07
2023-03-15T02:31:38.045Z,62.43
2023-03-15T02:34:08.627Z,62.65
2023-03-15T02:36:36.865Z,62.67
2023-03-15T02:39:19.827Z,62.89
2023-03-15T02:41:56.931Z,62.70
2023-03-15T02:44:30.426Z,62.90
2023-03-15T02:47:03.602Z,62.77
2023-03-15T02:49:35.485Z,62.62
2023-03-15T02:52:02.334Z,62.59
2023-03-15T02:54:29.083Z,62.94
2023-03-15T02:56:55.830Z,63.16
2023-03-15T02:59:22.698Z,63.09
2023-03-15T03:01:49.636Z,63.20
2023-03-15T03:04:16.520Z,63.07
2023-03-15T03:06:44.116Z,63.09
2023-03-15T03:09:14.034Z,63.32
2023-03-15T03:11:42.765Z,64.31
2023-03-15T03:14:09.548Z,64.16
2023-03-15T03:16:36.391Z,64.01
2023-03-15T03:19:04.150Z,63.68
2023-03-15T03:21:32.314Z,63.02
2023-03-15T03:23:59.094Z,63.23
2023-03-15T03:26:27.929Z,63.23
2023-03-15T03:28:56.272Z,63.39
2023-03-15T03:31:27.322Z,63.12
2023-03-15T03:33:56.999Z,62.68
2023-03-15T03:36:25.087Z,62.70
2023-03-15T03:38:53.773Z,63.00
2023-03-15T03:41:21.440Z,63.25
2023-03-15T03:43:48.569Z,63.41
2023-03-15T03:46:15.958Z,63.39
2023-03-15T03:48:47.889Z,62.95
2023-03-15T03:51:14.692Z,63.07
2023-03-15T03:53:41.400Z,63.22
2023-03-15T03:56:08.633Z,63.40
2023-03-15T03:58:36.671Z,63.46
2023-03-15T04:01:17.350Z,63.60
2023-03-15T04:03:49.426Z,63.66
2023-03-15T04:06:19.326Z,64.99
2023-03-15T04:08:47.634Z,64.78
2023-03-15T04:11:36.376Z,64.86
2023-03-15T04:14:06.568Z,64.21
2023-03-15T04:16:33.826Z,64.23
2023-03-15T04:19:04.540Z,63.80
2023-03-15T04:21:33.108Z,63.68
2023-03-15T04:24:35.968Z,64.53
2023-03-15T04:27:14.539Z,64.56
2023-03-15T04:30:05.446Z,64.63
2023-03-15T04:32:42.586Z,64.83
2023-03-15T04:35:32.581Z,65.21
2023-03-15T04:38:12.823Z,65.35
2023-03-15T04:41:10.862Z,65.26
2023-03-15T04:43:56.246Z,65.32
2023-03-15T04:46:34.000Z,65.38
2023-03-15T04:49:13.937Z,65.45
2023-03-15T04:52:15.778Z,64.98
2023-03-15T04:55:09.794Z,64.60
2023-03-15T04:57:57.497Z,64.82
2023-03-15T05:00:54.111Z,64.57
2023-03-15T05:03:34.247Z,64.76
2023-03-15T05:06:11.998Z,65.42
2023-03-15T05:08:57.328Z,65.91
2023-03-15T05:11:42.529Z,65.56
2023-03-15T05:14:28.018Z,65.96
2023-03-15T05:17:10.668Z,65.53
2023-03-15T05:19:51.745Z,65.50
2023-03-15T05:22:41.927Z,65.44
2023-03-15T05:25:12.220Z,65.30
2023-03-15T05:27:57.737Z,65.73
2023-03-15T05:30:35.085Z,65.47
2023-03-15T05:33:46.884Z,66.30
2023-03-15T05:36:31.711Z,66.46
2023-03-15T05:39:19.385Z,66.49
2023-03-15T05:42:12.286Z,66.30
2023-03-15T05:45:14.213Z,66.41
2023-03-15T05:48:07.206Z,66.42
2023-03-15T05:50:40.060Z,66.18
2023-03-15T05:53:29.984Z,66.13
2023-03-15T05:56:31.866Z,66.34
2023-03-15T05:59:10.559Z,66.45
2023-03-15T06:02:12.536Z,66.68
2023-03-15T06:04:51.973Z,66.87
2023-03-15T06:07:22.965Z,66.57
2023-03-15T06:09:49.949Z,66.90
2023-03-15T06:12:16.777Z,66.55
2023-03-15T06:14:43.657Z,66.47
2023-03-15T06:17:11.752Z,66.60
2023-03-15T06:19:42.039Z,67.16
2023-03-15T06:22:09.963Z,67.43
2023-03-15T06:24:52.291Z,67.60
2023-03-15T06:27:22.148Z,68.20
2023-03-15T06:29:50.677Z,68.05
2023-03-15T06:32:20.179Z,68.14
2023-03-15T06:34:47.170Z,67.87
2023-03-15T06:37:22.772Z,68.02
2023-03-15T06:39:56.474Z,67.81
2023-03-15T06:42:23.486Z,68.72
2023-03-15T06:44:51.240Z,70.60
2023-03-15T06:47:19.428Z,69.46
2023-03-15T06:49:50.350Z,69.38
2023-03-15T06:52:18.265Z,66.30
2023-03-15T06:54:45.233Z,66.45
2023-03-15T06:57:12.125Z,64.31
2023-03-15T06:59:38.974Z,63.96
2023-03-15T07:02:07.068Z,63.47
2023-03-15T07:04:33.824Z,63.19
2023-03-15T07:07:01.242Z,63.48
2023-03-15T07:09:27.978Z,62.31
2023-03-15T07:11:54.841Z,63.06
2023-03-15T07:14:22.315Z,62.71
2023-03-15T07:16:49.240Z,62.67
2023-03-15T07:19:16.180Z,62.55
2023-03-15T07:21:43.004Z,63.22
2023-03-15T07:24:09.858Z,62.14
2023-03-15T07:26:36.641Z,61.74
2023-03-15T07:29:03.544Z,58.97
2023-03-15T07:31:30.695Z,58.00
2023-03-15T07:33:57.539Z,57.02
2023-03-15T07:36:24.301Z,56.00
2023-03-15T07:38:51.095Z,56.13
2023-03-15T07:41:17.846Z,55.34
2023-03-15T07:43:58.125Z,55.03
2023-03-15T07:46:25.413Z,54.57
2023-03-15T07:48:52.184Z,53.71
2023-03-15T07:51:18.964Z,53.82
2023-03-15T07:53:45.722Z,52.02
2023-03-15T07:56:12.512Z,51.99
2023-03-15T07:58:39.261Z,52.01
2023-03-15T08:01:06.098Z,51.45
2023-03-15T08:03:32.877Z,50.90
2023-03-15T08:05:59.655Z,50.33
2023-03-15T08:08:26.446Z,50.40
2023-03-15T08:10:53.283Z,49.93
2023-03-15T08:13:20.084Z,49.77
2023-03-15T08:15:47.710Z,50.13
2023-03-15T08:18:14.967Z,50.15
2023-03-15T08:20:41.727Z,49.91
2023-03-15T08:23:09.229Z,50.08
2023-03-15T08:25:41.139Z,49.51
2023-03-15T08:28:08.179Z,49.35
2023-03-15T08:30:35.276Z,48.93
2023-03-15T08:33:02.146Z,48.81
2023-03-15T08:35:29.468Z,48.44
2023-03-15T08:37:56.635Z,47.67
2023-03-15T08:40:26.258Z,47.64
2023-03-15T08:42:53.971Z,47.40
2023-03-15T08:45:24.246Z,47.23
2023-03-15T08:47:58.693Z,46.67
2023-03-15T08:50:27.266Z,47.07
2023-03-15T08:52:54.667Z,46.28
2023-03-15T08:55:21.486Z,45.85
2023-03-15T08:57:48.485Z,45.87
2023-03-15T09:00:20.767Z,46.03
2023-03-15T09:02:52.244Z,46.02
2023-03-15T09:05:20.442Z,45.81
2023-03-15T09:07:48.252Z,45.23
2023-03-15T09:10:17.158Z,45.07
2023-03-15T09:12:46.353Z,45.08
2023-03-15T09:15:13.623Z,44.74
2023-03-15T09:17:41.334Z,44.56
2023-03-15T09:20:19.177Z,44.84
2023-03-15T09:22:54.946Z,44.84
2023-03-15T09:25:23.054Z,45.32
2023-03-15T09:27:49.863Z,45.13
2023-03-15T09:30:17.032Z,45.82
2023-03-15T09:32:44.198Z,45.15
2023-03-15T09:35:15.625Z,44.70
2023-03-15T09:37:42.718Z,44.85
2023-03-15T09:40:28.261Z,44.69
2023-03-15T09:43:14.048Z,45.13
2023-03-15T09:45:55.589Z,44.26
2023-03-15T09:48:32.690Z,43.88
2023-03-15T09:51:23.725Z,44.16
2023-03-15T09:54:02.085Z,44.07
2023-03-15T09:56:36.673Z,44.29
2023-03-15T09:59:04.198Z,44.25
2023-03-15T10:01:39.829Z,44.25
2023-03-15T10:04:34.847Z,44.15
2023-03-15T10:07:04.060Z,44.00
2023-03-15T10:09:35.536Z,43.90
2023-03-15T10:12:06.435Z,45.17
2023-03-15T10:15:10.404Z,47.69
2023-03-15T10:17:58.703Z,47.21
2023-03-15T10:20:35.504Z,48.25
2023-03-15T10:23:50.427Z,49.50
2023-03-15T10:26:23.711Z,50.67
2023-03-15T10:28:53.021Z,52.10
2023-03-15T10:31:36.925Z,52.73
2023-03-15T10:34:11.613Z,53.14
2023-03-15T10:36:44.823Z,52.86
2023-03-15T10:39:13.065Z,53.41
2023-03-15T10:41:46.409Z,53.60
2023-03-15T10:44:16.700Z,55.14
2023-03-15T10:47:04.628Z,55.16
2023-03-15T10:49:36.828Z,55.62
2023-03-15T10:52:04.018Z,55.03
2023-03-15T10:54:33.913Z,54.57
2023-03-15T10:57:14.676Z,54.07
2023-03-15T11:00:17.378Z,53.91
2023-03-15T11:03:15.841Z,53.85
2023-03-15T11:05:51.191Z,53.60
2023-03-15T11:08:20.532Z,53.85
2023-03-15T11:10:56.284Z,53.67
2023-03-15T11:13:28.475Z,54.20
2023-03-15T11:16:13.642Z,54.10
2023-03-15T11:18:49.182Z,54.25
2023-03-15T11:21:19.640Z,54.22
2023-03-15T11:23:51.228Z,53.85
2023-03-15T11:26:32.701Z,53.95
2023-03-15T11:29:05.842Z,54.86
2023-03-15T11:31:34.252Z,55.50
